sensor_id;sensor_type;location;lat;lon;timestamp;P1;durP1;ratioP1;P2;durP2;ratioP2
50569;SDS011;36525;49.398;7.614;2023-05-14T00:01:58;8.30;;;5.50;;
50569;SDS011;36525;49.398;7.614;2023-05-14T00:04:25;7.15;;;5.45;;
50569;SDS011;36525;49.398;7.614;2023-05-14T00:06:52;7.18;;;5.40;;
50569;SDS011;36525;49.398;7.614;2023-05-14T00:09:19;10.15;;;6.20;;
50569;SDS011;36525;49.398;7.614;2023-05-14T00:11:48;7.63;;;5.85;;
50569;SDS011;36525;49.398;7.614;2023-05-14T00:14:15;7.47;;;4.97;;
50569;SDS011;36525;49.398;7.614;2023-05-14T00:16:42;7.03;;;5.30;;
50569;SDS011;36525;49.398;7.614;2023-05-14T00:19:09;6.13;;;5.10;;
50569;SDS011;36525;49.398;7.614;2023-05-14T00:21:36;6.05;;;5.32;;
50569;SDS011;36525;49.398;7.614;2023-05-14T00:24:03;6.22;;;5.22;;
50569;SDS011;36525;49.398;7.614;2023-05-14T00:26:30;6.88;;;6.18;;
50569;SDS011;36525;49.398;7.614;2023-05-14T00:28:58;8.07;;;5.72;;
50569;SDS011;36525;49.398;7.614;2023-05-14T00:31:24;8.70;;;7.60;;
50569;SDS011;36525;49.398;7.614;2023-05-14T00:33:52;8.90;;;8.00;;
50569;SDS011;36525;49.398;7.614;2023-05-14T00:36:19;9.05;;;5.35;;
50569;SDS011;36525;49.398;7.614;2023-05-14T00:38:46;6.97;;;5.07;;
50569;SDS011;36525;49.398;7.614;2023-05-14T00:41:14;12.75;;;5.15;;
50569;SDS011;36525;49.398;7.614;2023-05-14T00:43:41;8.65;;;5.25;;
50569;SDS011;36525;49.398;7.614;2023-05-14T00:46:08;10.20;;;6.25;;
50569;SDS011;36525;49.398;7.614;2023-05-14T00:48:37;7.40;;;5.88;;
50569;SDS011;36525;49.398;7.614;2023-05-14T00:51:05;9.13;;;6.28;;
50569;SDS011;36525;49.398;7.614;2023-05-14T00:53:35;7.93;;;7.00;;
50569;SDS011;36525;49.398;7.614;2023-05-14T00:56:02;10.98;;;7.68;;
50569;SDS011;36525;49.398;7.614;2023-05-14T00:58:29;8.57;;;7.55;;
50569;SDS011;36525;49.398;7.614;2023-05-14T01:00:57;11.77;;;8.90;;
50569;SDS011;36525;49.398;7.614;2023-05-14T01:03:24;10.25;;;7.10;;
50569;SDS011;36525;49.398;7.614;2023-05-14T01:09:17;9.40;;;5.70;;
50569;SDS011;36525;49.398;7.614;2023-05-14T01:11:54;9.00;;;6.75;;
50569;SDS011;36525;49.398;7.614;2023-05-14T01:17:28;10.77;;;6.90;;
50569;SDS011;36525;49.398;7.614;2023-05-14T01:20:03;7.93;;;6.68;;
50569;SDS011;36525;49.398;7.614;2023-05-14T01:22:31;8.07;;;6.75;;
50569;SDS011;36525;49.398;7.614;2023-05-14T01:24:58;8.45;;;6.10;;
50569;SDS011;36525;49.398;7.614;2023-05-14T01:27:44;8.95;;;7.22;;
50569;SDS011;36525;49.398;7.614;2023-05-14T01:33:06;8.32;;;6.40;;
50569;SDS011;36525;49.398;7.614;2023-05-14T01:35:39;7.57;;;6.72;;
50569;SDS011;36525;49.398;7.614;2023-05-14T01:38:08;7.80;;;6.35;;
50569;SDS011;36525;49.398;7.614;2023-05-14T01:40:38;12.07;;;7.10;;
50569;SDS011;36525;49.398;7.614;2023-05-14T01:43:06;9.98;;;6.20;;
50569;SDS011;36525;49.398;7.614;2023-05-14T01:45:34;7.38;;;6.47;;
50569;SDS011;36525;49.398;7.614;2023-05-14T01:48:03;7.38;;;5.95;;
50569;SDS011;36525;49.398;7.614;2023-05-14T01:50:31;6.32;;;5.68;;
50569;SDS011;36525;49.398;7.614;2023-05-14T01:52:58;7.13;;;6.28;;
50569;SDS011;36525;49.398;7.614;2023-05-14T01:55:27;10.23;;;7.03;;
50569;SDS011;36525;49.398;7.614;2023-05-14T01:57:54;9.25;;;6.90;;
50569;SDS011;36525;49.398;7.614;2023-05-14T02:00:22;8.70;;;7.07;;
50569;SDS011;36525;49.398;7.614;2023-05-14T02:02:52;8.57;;;6.93;;
50569;SDS011;36525;49.398;7.614;2023-05-14T02:05:19;8.05;;;5.82;;
50569;SDS011;36525;49.398;7.614;2023-05-14T02:07:47;8.45;;;7.53;;
50569;SDS011;36525;49.398;7.614;2023-05-14T02:10:14;8.30;;;6.70;;
50569;SDS011;36525;49.398;7.614;2023-05-14T02:12:42;6.57;;;5.35;;
50569;SDS011;36525;49.398;7.614;2023-05-14T02:15:09;9.00;;;7.25;;
50569;SDS011;36525;49.398;7.614;2023-05-14T02:17:36;8.05;;;6.28;;
50569;SDS011;36525;49.398;7.614;2023-05-14T02:20:04;6.63;;;5.93;;
50569;SDS011;36525;49.398;7.614;2023-05-14T02:22:32;7.60;;;5.75;;
50569;SDS011;36525;49.398;7.614;2023-05-14T02:24:59;8.38;;;6.53;;
50569;SDS011;36525;49.398;7.614;2023-05-14T02:27:28;11.60;;;7.25;;
50569;SDS011;36525;49.398;7.614;2023-05-14T02:29:56;5.75;;;5.15;;
50569;SDS011;36525;49.398;7.614;2023-05-14T02:32:26;6.38;;;5.72;;
50569;SDS011;36525;49.398;7.614;2023-05-14T02:34:54;8.25;;;5.30;;
50569;SDS011;36525;49.398;7.614;2023-05-14T02:37:21;8.23;;;5.93;;
50569;SDS011;36525;49.398;7.614;2023-05-14T02:39:48;7.22;;;5.78;;
50569;SDS011;36525;49.398;7.614;2023-05-14T02:42:19;8.93;;;6.00;;
50569;SDS011;36525;49.398;7.614;2023-05-14T02:44:49;6.97;;;5.93;;
50569;SDS011;36525;49.398;7.614;2023-05-14T02:47:17;8.27;;;6.15;;
50569;SDS011;36525;49.398;7.614;2023-05-14T02:49:45;8.30;;;6.13;;
50569;SDS011;36525;49.398;7.614;2023-05-14T02:52:12;8.60;;;5.53;;
50569;SDS011;36525;49.398;7.614;2023-05-14T02:54:40;11.15;;;7.30;;
50569;SDS011;36525;49.398;7.614;2023-05-14T02:57:08;7.20;;;6.00;;
50569;SDS011;36525;49.398;7.614;2023-05-14T02:59:35;7.35;;;5.85;;
50569;SDS011;36525;49.398;7.614;2023-05-14T03:02:03;6.13;;;5.30;;
50569;SDS011;36525;49.398;7.614;2023-05-14T03:04:31;7.15;;;6.00;;
50569;SDS011;36525;49.398;7.614;2023-05-14T03:06:58;6.22;;;5.50;;
50569;SDS011;36525;49.398;7.614;2023-05-14T03:09:25;13.05;;;6.20;;
50569;SDS011;36525;49.398;7.614;2023-05-14T03:11:53;7.97;;;6.90;;
50569;SDS011;36525;49.398;7.614;2023-05-14T03:14:20;8.93;;;6.72;;
50569;SDS011;36525;49.398;7.614;2023-05-14T03:16:48;6.88;;;5.90;;
50569;SDS011;36525;49.398;7.614;2023-05-14T03:19:15;8.70;;;5.80;;
50569;SDS011;36525;49.398;7.614;2023-05-14T03:21:42;7.80;;;5.35;;
50569;SDS011;36525;49.398;7.614;2023-05-14T03:24:09;6.78;;;5.95;;
50569;SDS011;36525;49.398;7.614;2023-05-14T03:26:36;9.68;;;5.60;;
50569;SDS011;36525;49.398;7.614;2023-05-14T03:29:03;8.25;;;6.15;;
50569;SDS011;36525;49.398;7.614;2023-05-14T03:31:31;7.85;;;6.55;;
50569;SDS011;36525;49.398;7.614;2023-05-14T03:33:58;7.82;;;6.60;;
50569;SDS011;36525;49.398;7.614;2023-05-14T03:36:25;8.82;;;6.60;;
50569;SDS011;36525;49.398;7.614;2023-05-14T03:38:52;7.00;;;5.88;;
50569;SDS011;36525;49.398;7.614;2023-05-14T03:41:19;9.40;;;6.03;;
50569;SDS011;36525;49.398;7.614;2023-05-14T03:43:48;7.00;;;5.28;;
50569;SDS011;36525;49.398;7.614;2023-05-14T03:46:15;6.47;;;5.57;;
50569;SDS011;36525;49.398;7.614;2023-05-14T03:48:42;9.60;;;6.38;;
50569;SDS011;36525;49.398;7.614;2023-05-14T03:51:10;9.18;;;6.13;;
50569;SDS011;36525;49.398;7.614;2023-05-14T03:53:37;10.82;;;7.68;;
50569;SDS011;36525;49.398;7.614;2023-05-14T03:56:04;11.73;;;8.27;;
50569;SDS011;36525;49.398;7.614;2023-05-14T03:58:31;11.35;;;6.45;;
50569;SDS011;36525;49.398;7.614;2023-05-14T04:00:59;6.72;;;4.38;;
50569;SDS011;36525;49.398;7.614;2023-05-14T04:03:26;5.05;;;4.55;;
50569;SDS011;36525;49.398;7.614;2023-05-14T04:05:54;14.80;;;11.93;;
50569;SDS011;36525;49.398;7.614;2023-05-14T04:08:21;9.55;;;7.88;;
50569;SDS011;36525;49.398;7.614;2023-05-14T04:10:48;9.75;;;8.23;;
50569;SDS011;36525;49.398;7.614;2023-05-14T04:13:16;9.50;;;6.93;;
50569;SDS011;36525;49.398;7.614;2023-05-14T04:15:43;9.07;;;7.75;;
50569;SDS011;36525;49.398;7.614;2023-05-14T04:18:11;7.03;;;5.47;;
50569;SDS011;36525;49.398;7.614;2023-05-14T04:20:38;8.70;;;6.07;;
50569;SDS011;36525;49.398;7.614;2023-05-14T04:23:06;9.50;;;6.45;;
50569;SDS011;36525;49.398;7.614;2023-05-14T04:25:33;6.32;;;5.72;;
50569;SDS011;36525;49.398;7.614;2023-05-14T04:28:00;6.45;;;4.88;;
50569;SDS011;36525;49.398;7.614;2023-05-14T04:30:28;10.20;;;7.10;;
50569;SDS011;36525;49.398;7.614;2023-05-14T04:32:56;5.78;;;5.10;;
50569;SDS011;36525;49.398;7.614;2023-05-14T04:35:23;11.38;;;6.10;;
50569;SDS011;36525;49.398;7.614;2023-05-14T04:37:51;5.32;;;4.55;;
50569;SDS011;36525;49.398;7.614;2023-05-14T04:40:18;8.52;;;6.70;;
50569;SDS011;36525;49.398;7.614;2023-05-14T04:42:45;8.65;;;6.03;;
50569;SDS011;36525;49.398;7.614;2023-05-14T04:45:13;7.93;;;5.55;;
50569;SDS011;36525;49.398;7.614;2023-05-14T04:47:40;7.60;;;6.18;;
50569;SDS011;36525;49.398;7.614;2023-05-14T04:50:07;9.68;;;6.32;;
50569;SDS011;36525;49.398;7.614;2023-05-14T04:52:36;6.43;;;5.63;;
50569;SDS011;36525;49.398;7.614;2023-05-14T04:55:04;5.72;;;5.07;;
50569;SDS011;36525;49.398;7.614;2023-05-14T04:57:32;6.35;;;5.47;;
50569;SDS011;36525;49.398;7.614;2023-05-14T04:59:59;9.13;;;6.68;;
50569;SDS011;36525;49.398;7.614;2023-05-14T05:02:26;8.02;;;7.07;;
50569;SDS011;36525;49.398;7.614;2023-05-14T05:04:53;6.53;;;5.75;;
50569;SDS011;36525;49.398;7.614;2023-05-14T05:07:20;8.95;;;6.60;;
50569;SDS011;36525;49.398;7.614;2023-05-14T05:09:47;7.60;;;5.78;;
50569;SDS011;36525;49.398;7.614;2023-05-14T05:12:14;7.72;;;5.47;;
50569;SDS011;36525;49.398;7.614;2023-05-14T05:14:42;6.75;;;5.07;;
50569;SDS011;36525;49.398;7.614;2023-05-14T05:17:09;5.25;;;4.75;;
50569;SDS011;36525;49.398;7.614;2023-05-14T05:19:36;5.95;;;4.60;;
50569;SDS011;36525;49.398;7.614;2023-05-14T05:22:09;5.75;;;4.72;;
50569;SDS011;36525;49.398;7.614;2023-05-14T05:24:37;6.55;;;4.90;;
50569;SDS011;36525;49.398;7.614;2023-05-14T05:27:04;9.82;;;5.20;;
50569;SDS011;36525;49.398;7.614;2023-05-14T05:29:31;7.72;;;4.45;;
50569;SDS011;36525;49.398;7.614;2023-05-14T05:31:58;6.45;;;5.05;;
50569;SDS011;36525;49.398;7.614;2023-05-14T05:34:26;6.70;;;5.38;;
50569;SDS011;36525;49.398;7.614;2023-05-14T05:36:53;7.25;;;6.18;;
50569;SDS011;36525;49.398;7.614;2023-05-14T05:39:20;5.93;;;5.07;;
50569;SDS011;36525;49.398;7.614;2023-05-14T05:41:48;5.75;;;4.88;;
50569;SDS011;36525;49.398;7.614;2023-05-14T05:44:15;6.60;;;5.53;;
50569;SDS011;36525;49.398;7.614;2023-05-14T05:46:42;6.32;;;5.22;;
50569;SDS011;36525;49.398;7.614;2023-05-14T05:49:10;6.95;;;5.82;;
50569;SDS011;36525;49.398;7.614;2023-05-14T05:51:37;5.80;;;5.20;;
50569;SDS011;36525;49.398;7.614;2023-05-14T05:54:04;8.30;;;5.38;;
50569;SDS011;36525;49.398;7.614;2023-05-14T05:56:31;5.50;;;4.30;;
50569;SDS011;36525;49.398;7.614;2023-05-14T05:58:58;6.30;;;5.47;;
50569;SDS011;36525;49.398;7.614;2023-05-14T06:01:25;6.10;;;5.30;;
50569;SDS011;36525;49.398;7.614;2023-05-14T06:03:53;6.97;;;5.50;;
50569;SDS011;36525;49.398;7.614;2023-05-14T06:06:20;7.35;;;5.20;;
50569;SDS011;36525;49.398;7.614;2023-05-14T06:08:47;8.25;;;5.85;;
50569;SDS011;36525;49.398;7.614;2023-05-14T06:11:14;6.25;;;4.75;;
50569;SDS011;36525;49.398;7.614;2023-05-14T06:13:42;9.10;;;5.25;;
50569;SDS011;36525;49.398;7.614;2023-05-14T06:16:09;6.13;;;4.30;;
50569;SDS011;36525;49.398;7.614;2023-05-14T06:18:36;15.80;;;5.22;;
50569;SDS011;36525;49.398;7.614;2023-05-14T06:21:03;7.05;;;4.90;;
50569;SDS011;36525;49.398;7.614;2023-05-14T06:23:31;6.78;;;4.93;;
50569;SDS011;36525;49.398;7.614;2023-05-14T06:25:58;8.15;;;4.93;;
50569;SDS011;36525;49.398;7.614;2023-05-14T06:28:25;5.68;;;4.50;;
50569;SDS011;36525;49.398;7.614;2023-05-14T06:30:52;6.55;;;4.82;;
50569;SDS011;36525;49.398;7.614;2023-05-14T06:33:20;7.97;;;5.28;;
50569;SDS011;36525;49.398;7.614;2023-05-14T06:35:55;6.53;;;4.90;;
50569;SDS011;36525;49.398;7.614;2023-05-14T06:38:28;6.22;;;4.78;;
50569;SDS011;36525;49.398;7.614;2023-05-14T06:40:56;9.35;;;5.10;;
50569;SDS011;36525;49.398;7.614;2023-05-14T06:43:23;6.13;;;4.93;;
50569;SDS011;36525;49.398;7.614;2023-05-14T06:45:51;6.97;;;5.28;;
50569;SDS011;36525;49.398;7.614;2023-05-14T06:48:19;8.10;;;5.88;;
50569;SDS011;36525;49.398;7.614;2023-05-14T06:50:47;6.78;;;5.57;;
50569;SDS011;36525;49.398;7.614;2023-05-14T06:53:15;5.95;;;5.30;;
50569;SDS011;36525;49.398;7.614;2023-05-14T06:55:42;6.13;;;5.15;;
50569;SDS011;36525;49.398;7.614;2023-05-14T06:58:10;8.57;;;5.95;;
50569;SDS011;36525;49.398;7.614;2023-05-14T07:00:38;7.75;;;5.70;;
50569;SDS011;36525;49.398;7.614;2023-05-14T07:03:06;7.82;;;5.80;;
50569;SDS011;36525;49.398;7.614;2023-05-14T07:05:33;6.60;;;5.03;;
50569;SDS011;36525;49.398;7.614;2023-05-14T07:08:00;6.05;;;5.45;;
50569;SDS011;36525;49.398;7.614;2023-05-14T07:10:27;9.25;;;5.88;;
50569;SDS011;36525;49.398;7.614;2023-05-14T07:12:54;8.18;;;5.00;;
50569;SDS011;36525;49.398;7.614;2023-05-14T07:15:21;6.20;;;4.50;;
50569;SDS011;36525;49.398;7.614;2023-05-14T07:17:48;7.10;;;5.47;;
50569;SDS011;36525;49.398;7.614;2023-05-14T07:20:16;7.57;;;4.82;;
50569;SDS011;36525;49.398;7.614;2023-05-14T07:22:43;8.35;;;5.50;;
50569;SDS011;36525;49.398;7.614;2023-05-14T07:25:10;6.47;;;4.90;;
50569;SDS011;36525;49.398;7.614;2023-05-14T07:27:38;6.85;;;4.68;;
50569;SDS011;36525;49.398;7.614;2023-05-14T07:30:05;7.68;;;5.28;;
50569;SDS011;36525;49.398;7.614;2023-05-14T07:32:33;7.28;;;5.03;;
50569;SDS011;36525;49.398;7.614;2023-05-14T07:35:03;7.38;;;4.78;;
50569;SDS011;36525;49.398;7.614;2023-05-14T07:37:31;7.50;;;4.80;;
50569;SDS011;36525;49.398;7.614;2023-05-14T07:39:58;6.22;;;4.35;;
50569;SDS011;36525;49.398;7.614;2023-05-14T07:42:25;5.70;;;4.10;;
50569;SDS011;36525;49.398;7.614;2023-05-14T07:45:02;7.78;;;5.00;;
50569;SDS011;36525;49.398;7.614;2023-05-14T07:47:31;9.88;;;5.03;;
50569;SDS011;36525;49.398;7.614;2023-05-14T07:49:59;6.10;;;4.35;;
50569;SDS011;36525;49.398;7.614;2023-05-14T07:52:27;6.22;;;5.03;;
50569;SDS011;36525;49.398;7.614;2023-05-14T07:54:54;7.70;;;5.03;;
50569;SDS011;36525;49.398;7.614;2023-05-14T07:57:22;8.45;;;5.38;;
50569;SDS011;36525;49.398;7.614;2023-05-14T07:59:48;7.80;;;4.90;;
50569;SDS011;36525;49.398;7.614;2023-05-14T08:02:18;7.43;;;5.25;;
50569;SDS011;36525;49.398;7.614;2023-05-14T08:04:45;5.78;;;4.70;;
50569;SDS011;36525;49.398;7.614;2023-05-14T08:07:12;5.65;;;4.10;;
50569;SDS011;36525;49.398;7.614;2023-05-14T08:09:40;6.95;;;4.70;;
50569;SDS011;36525;49.398;7.614;2023-05-14T08:12:07;5.75;;;4.75;;
50569;SDS011;36525;49.398;7.614;2023-05-14T08:14:34;6.07;;;4.38;;
50569;SDS011;36525;49.398;7.614;2023-05-14T08:17:01;7.32;;;4.90;;
50569;SDS011;36525;49.398;7.614;2023-05-14T08:19:29;9.07;;;4.95;;
50569;SDS011;36525;49.398;7.614;2023-05-14T08:21:56;6.32;;;4.72;;
50569;SDS011;36525;49.398;7.614;2023-05-14T08:24:23;7.97;;;4.53;;
50569;SDS011;36525;49.398;7.614;2023-05-14T08:26:50;6.63;;;4.30;;
50569;SDS011;36525;49.398;7.614;2023-05-14T08:29:17;6.55;;;3.83;;
50569;SDS011;36525;49.398;7.614;2023-05-14T08:31:44;4.57;;;3.55;;
50569;SDS011;36525;49.398;7.614;2023-05-14T08:34:12;5.05;;;3.80;;
50569;SDS011;36525;49.398;7.614;2023-05-14T08:36:40;4.25;;;3.30;;
50569;SDS011;36525;49.398;7.614;2023-05-14T08:39:07;4.70;;;3.47;;
50569;SDS011;36525;49.398;7.614;2023-05-14T08:41:35;10.07;;;3.75;;
50569;SDS011;36525;49.398;7.614;2023-05-14T08:44:11;4.43;;;2.95;;
50569;SDS011;36525;49.398;7.614;2023-05-14T08:46:40;4.30;;;3.28;;
50569;SDS011;36525;49.398;7.614;2023-05-14T08:49:14;3.42;;;2.88;;
50569;SDS011;36525;49.398;7.614;2023-05-14T08:51:58;4.63;;;3.00;;
50569;SDS011;36525;49.398;7.614;2023-05-14T08:54:25;4.85;;;3.03;;
50569;SDS011;36525;49.398;7.614;2023-05-14T08:56:54;3.22;;;2.45;;
50569;SDS011;36525;49.398;7.614;2023-05-14T08:59:21;4.20;;;2.70;;
50569;SDS011;36525;49.398;7.614;2023-05-14T09:01:51;3.58;;;2.53;;
50569;SDS011;36525;49.398;7.614;2023-05-14T09:04:20;4.47;;;2.40;;
50569;SDS011;36525;49.398;7.614;2023-05-14T09:06:51;2.15;;;1.73;;
50569;SDS011;36525;49.398;7.614;2023-05-14T09:09:19;3.90;;;2.28;;
50569;SDS011;36525;49.398;7.614;2023-05-14T09:11:48;3.15;;;2.00;;
50569;SDS011;36525;49.398;7.614;2023-05-14T09:14:17;3.60;;;1.88;;
50569;SDS011;36525;49.398;7.614;2023-05-14T09:16:46;3.30;;;2.05;;
50569;SDS011;36525;49.398;7.614;2023-05-14T09:19:15;3.60;;;2.22;;
50569;SDS011;36525;49.398;7.614;2023-05-14T09:21:45;3.20;;;2.08;;
50569;SDS011;36525;49.398;7.614;2023-05-14T09:24:17;3.13;;;2.28;;
50569;SDS011;36525;49.398;7.614;2023-05-14T09:26:54;3.10;;;2.10;;
50569;SDS011;36525;49.398;7.614;2023-05-14T09:29:23;3.03;;;1.90;;
50569;SDS011;36525;49.398;7.614;2023-05-14T09:31:51;2.95;;;1.88;;
50569;SDS011;36525;49.398;7.614;2023-05-14T09:34:24;2.67;;;1.77;;
50569;SDS011;36525;49.398;7.614;2023-05-14T09:36:57;2.33;;;1.50;;
50569;SDS011;36525;49.398;7.614;2023-05-14T09:39:29;4.93;;;1.40;;
50569;SDS011;36525;49.398;7.614;2023-05-14T09:41:57;3.20;;;1.42;;
50569;SDS011;36525;49.398;7.614;2023-05-14T09:44:24;2.63;;;1.58;;
50569;SDS011;36525;49.398;7.614;2023-05-14T09:46:53;2.90;;;1.70;;
50569;SDS011;36525;49.398;7.614;2023-05-14T09:49:21;3.83;;;2.10;;
50569;SDS011;36525;49.398;7.614;2023-05-14T09:51:48;3.55;;;1.70;;
50569;SDS011;36525;49.398;7.614;2023-05-14T09:54:16;4.47;;;1.92;;
50569;SDS011;36525;49.398;7.614;2023-05-14T09:56:43;6.38;;;2.33;;
50569;SDS011;36525;49.398;7.614;2023-05-14T09:59:13;2.72;;;1.80;;
50569;SDS011;36525;49.398;7.614;2023-05-14T10:01:41;4.30;;;1.75;;
50569;SDS011;36525;49.398;7.614;2023-05-14T10:04:10;2.72;;;1.73;;
50569;SDS011;36525;49.398;7.614;2023-05-14T10:06:38;5.25;;;1.55;;
50569;SDS011;36525;49.398;7.614;2023-05-14T10:09:13;4.15;;;1.67;;
50569;SDS011;36525;49.398;7.614;2023-05-14T10:11:45;3.55;;;1.80;;
50569;SDS011;36525;49.398;7.614;2023-05-14T10:14:25;2.25;;;1.45;;
50569;SDS011;36525;49.398;7.614;2023-05-14T10:16:59;2.63;;;1.60;;
50569;SDS011;36525;49.398;7.614;2023-05-14T10:19:30;2.33;;;1.50;;
50569;SDS011;36525;49.398;7.614;2023-05-14T10:22:03;2.25;;;1.30;;
50569;SDS011;36525;49.398;7.614;2023-05-14T10:24:33;2.65;;;1.60;;
50569;SDS011;36525;49.398;7.614;2023-05-14T10:27:01;3.38;;;1.70;;
50569;SDS011;36525;49.398;7.614;2023-05-14T10:29:35;7.15;;;1.33;;
50569;SDS011;36525;49.398;7.614;2023-05-14T10:32:04;3.13;;;1.38;;
50569;SDS011;36525;49.398;7.614;2023-05-14T10:34:36;4.35;;;1.52;;
50569;SDS011;36525;49.398;7.614;2023-05-14T10:37:15;4.35;;;1.85;;
50569;SDS011;36525;49.398;7.614;2023-05-14T10:42:22;3.70;;;1.60;;
50569;SDS011;36525;49.398;7.614;2023-05-14T10:44:53;2.47;;;1.60;;
50569;SDS011;36525;49.398;7.614;2023-05-14T10:47:27;2.08;;;1.23;;
50569;SDS011;36525;49.398;7.614;2023-05-14T10:49:55;2.85;;;0.90;;
50569;SDS011;36525;49.398;7.614;2023-05-14T10:52:25;1.42;;;0.80;;
50569;SDS011;36525;49.398;7.614;2023-05-14T10:54:55;1.88;;;1.20;;
50569;SDS011;36525;49.398;7.614;2023-05-14T10:57:29;3.63;;;1.10;;
50569;SDS011;36525;49.398;7.614;2023-05-14T11:00:00;1.92;;;1.05;;
50569;SDS011;36525;49.398;7.614;2023-05-14T11:02:34;2.47;;;1.10;;
50569;SDS011;36525;49.398;7.614;2023-05-14T11:05:04;3.25;;;1.33;;
50569;SDS011;36525;49.398;7.614;2023-05-14T11:07:35;2.60;;;1.15;;
50569;SDS011;36525;49.398;7.614;2023-05-14T11:10:10;1.60;;;1.15;;
50569;SDS011;36525;49.398;7.614;2023-05-14T11:12:44;1.88;;;1.02;;
50569;SDS011;36525;49.398;7.614;2023-05-14T11:15:17;1.67;;;1.05;;
50569;SDS011;36525;49.398;7.614;2023-05-14T11:17:47;2.25;;;1.30;;
50569;SDS011;36525;49.398;7.614;2023-05-14T11:20:16;1.80;;;1.17;;
50569;SDS011;36525;49.398;7.614;2023-05-14T11:22:47;1.40;;;0.97;;
50569;SDS011;36525;49.398;7.614;2023-05-14T11:25:17;3.35;;;1.25;;
50569;SDS011;36525;49.398;7.614;2023-05-14T11:27:46;2.85;;;1.27;;
50569;SDS011;36525;49.398;7.614;2023-05-14T11:30:17;2.13;;;1.30;;
50569;SDS011;36525;49.398;7.614;2023-05-14T11:32:47;2.95;;;1.40;;
50569;SDS011;36525;49.398;7.614;2023-05-14T11:35:16;3.60;;;1.35;;
50569;SDS011;36525;49.398;7.614;2023-05-14T11:37:52;3.63;;;1.67;;
50569;SDS011;36525;49.398;7.614;2023-05-14T11:40:19;2.03;;;1.15;;
50569;SDS011;36525;49.398;7.614;2023-05-14T11:42:49;2.88;;;0.93;;
50569;SDS011;36525;49.398;7.614;2023-05-14T11:45:25;2.58;;;1.10;;
50569;SDS011;36525;49.398;7.614;2023-05-14T11:47:55;4.15;;;1.20;;
50569;SDS011;36525;49.398;7.614;2023-05-14T11:50:22;2.38;;;1.20;;
50569;SDS011;36525;49.398;7.614;2023-05-14T11:52:54;2.78;;;1.45;;
50569;SDS011;36525;49.398;7.614;2023-05-14T11:57:52;2.75;;;1.25;;
50569;SDS011;36525;49.398;7.614;2023-05-14T12:00:20;1.48;;;0.98;;
50569;SDS011;36525;49.398;7.614;2023-05-14T12:02:49;1.73;;;0.98;;
50569;SDS011;36525;49.398;7.614;2023-05-14T12:05:21;1.35;;;0.80;;
50569;SDS011;36525;49.398;7.614;2023-05-14T12:07:47;2.58;;;0.90;;
50569;SDS011;36525;49.398;7.614;2023-05-14T12:10:15;2.65;;;1.13;;
50569;SDS011;36525;49.398;7.614;2023-05-14T12:12:44;3.08;;;1.33;;
50569;SDS011;36525;49.398;7.614;2023-05-14T12:15:13;1.67;;;0.80;;
50569;SDS011;36525;49.398;7.614;2023-05-14T12:17:50;2.85;;;1.20;;
50569;SDS011;36525;49.398;7.614;2023-05-14T12:20:18;2.45;;;1.05;;
50569;SDS011;36525;49.398;7.614;2023-05-14T12:22:45;1.90;;;0.93;;
50569;SDS011;36525;49.398;7.614;2023-05-14T12:25:12;2.95;;;0.90;;
50569;SDS011;36525;49.398;7.614;2023-05-14T12:27:40;1.80;;;1.00;;
50569;SDS011;36525;49.398;7.614;2023-05-14T12:30:11;0.93;;;0.60;;
50569;SDS011;36525;49.398;7.614;2023-05-14T12:32:42;1.42;;;0.98;;
50569;SDS011;36525;49.398;7.614;2023-05-14T12:35:09;1.75;;;0.80;;
50569;SDS011;36525;49.398;7.614;2023-05-14T12:37:36;2.17;;;0.90;;
50569;SDS011;36525;49.398;7.614;2023-05-14T12:40:05;2.65;;;0.70;;
50569;SDS011;36525;49.398;7.614;2023-05-14T12:42:36;2.60;;;0.87;;
50569;SDS011;36525;49.398;7.614;2023-05-14T12:45:03;1.50;;;0.82;;
50569;SDS011;36525;49.398;7.614;2023-05-14T12:47:33;1.67;;;0.80;;
50569;SDS011;36525;49.398;7.614;2023-05-14T12:50:02;3.40;;;0.80;;
50569;SDS011;36525;49.398;7.614;2023-05-14T12:52:30;1.48;;;0.98;;
50569;SDS011;36525;49.398;7.614;2023-05-14T12:55:00;2.58;;;0.90;;
50569;SDS011;36525;49.398;7.614;2023-05-14T12:57:27;1.92;;;0.90;;
50569;SDS011;36525;49.398;7.614;2023-05-14T12:59:55;2.92;;;1.10;;
50569;SDS011;36525;49.398;7.614;2023-05-14T13:02:26;2.13;;;1.27;;
50569;SDS011;36525;49.398;7.614;2023-05-14T13:04:53;1.55;;;0.93;;
50569;SDS011;36525;49.398;7.614;2023-05-14T13:07:20;1.52;;;1.05;;
50569;SDS011;36525;49.398;7.614;2023-05-14T13:09:50;2.42;;;1.00;;
50569;SDS011;36525;49.398;7.614;2023-05-14T13:12:18;2.75;;;0.95;;
50569;SDS011;36525;49.398;7.614;2023-05-14T13:14:45;4.15;;;0.93;;
50569;SDS011;36525;49.398;7.614;2023-05-14T13:17:12;1.52;;;0.90;;
50569;SDS011;36525;49.398;7.614;2023-05-14T13:19:39;1.95;;;1.00;;
50569;SDS011;36525;49.398;7.614;2023-05-14T13:22:07;1.95;;;1.15;;
50569;SDS011;36525;49.398;7.614;2023-05-14T13:24:34;2.15;;;0.70;;
50569;SDS011;36525;49.398;7.614;2023-05-14T13:27:01;1.88;;;0.80;;
50569;SDS011;36525;49.398;7.614;2023-05-14T13:29:29;2.00;;;1.00;;
50569;SDS011;36525;49.398;7.614;2023-05-14T13:31:56;2.42;;;1.20;;
50569;SDS011;36525;49.398;7.614;2023-05-14T13:34:23;2.78;;;0.80;;
50569;SDS011;36525;49.398;7.614;2023-05-14T13:36:50;2.25;;;1.05;;
50569;SDS011;36525;49.398;7.614;2023-05-14T13:39:17;3.03;;;1.35;;
50569;SDS011;36525;49.398;7.614;2023-05-14T13:41:47;1.75;;;0.90;;
50569;SDS011;36525;49.398;7.614;2023-05-14T13:44:15;1.63;;;1.08;;
50569;SDS011;36525;49.398;7.614;2023-05-14T13:46:43;1.70;;;1.05;;
50569;SDS011;36525;49.398;7.614;2023-05-14T13:49:10;1.40;;;0.80;;
50569;SDS011;36525;49.398;7.614;2023-05-14T13:51:37;5.38;;;1.10;;
50569;SDS011;36525;49.398;7.614;2023-05-14T13:54:04;1.38;;;0.80;;
50569;SDS011;36525;49.398;7.614;2023-05-14T13:56:31;1.92;;;0.85;;
50569;SDS011;36525;49.398;7.614;2023-05-14T13:58:58;2.00;;;0.82;;
50569;SDS011;36525;49.398;7.614;2023-05-14T14:01:26;1.83;;;0.90;;
50569;SDS011;36525;49.398;7.614;2023-05-14T14:03:56;1.58;;;0.93;;
50569;SDS011;36525;49.398;7.614;2023-05-14T14:06:24;1.65;;;1.00;;
50569;SDS011;36525;49.398;7.614;2023-05-14T14:08:55;1.70;;;1.23;;
50569;SDS011;36525;49.398;7.614;2023-05-14T14:11:22;1.40;;;0.90;;
50569;SDS011;36525;49.398;7.614;2023-05-14T14:13:49;2.58;;;1.10;;
50569;SDS011;36525;49.398;7.614;2023-05-14T14:16:16;2.15;;;1.10;;
50569;SDS011;36525;49.398;7.614;2023-05-14T14:18:44;4.20;;;1.00;;
50569;SDS011;36525;49.398;7.614;2023-05-14T14:21:11;2.00;;;1.05;;
50569;SDS011;36525;49.398;7.614;2023-05-14T14:23:39;2.55;;;1.10;;
50569;SDS011;36525;49.398;7.614;2023-05-14T14:26:06;2.80;;;1.30;;
50569;SDS011;36525;49.398;7.614;2023-05-14T14:28:33;3.20;;;1.10;;
50569;SDS011;36525;49.398;7.614;2023-05-14T14:31:00;1.70;;;0.90;;
50569;SDS011;36525;49.398;7.614;2023-05-14T14:33:27;2.00;;;1.02;;
50569;SDS011;36525;49.398;7.614;2023-05-14T14:35:55;2.63;;;1.00;;
50569;SDS011;36525;49.398;7.614;2023-05-14T14:38:23;1.73;;;1.10;;
50569;SDS011;36525;49.398;7.614;2023-05-14T14:40:50;4.18;;;1.05;;
50569;SDS011;36525;49.398;7.614;2023-05-14T14:43:17;2.65;;;1.35;;
50569;SDS011;36525;49.398;7.614;2023-05-14T14:45:44;1.70;;;1.00;;
50569;SDS011;36525;49.398;7.614;2023-05-14T14:48:21;1.92;;;1.30;;
50569;SDS011;36525;49.398;7.614;2023-05-14T14:50:50;3.15;;;1.10;;
50569;SDS011;36525;49.398;7.614;2023-05-14T14:53:19;1.75;;;1.00;;
50569;SDS011;36525;49.398;7.614;2023-05-14T14:55:47;2.25;;;1.20;;
50569;SDS011;36525;49.398;7.614;2023-05-14T14:58:16;2.38;;;1.25;;
50569;SDS011;36525;49.398;7.614;2023-05-14T15:00:46;1.70;;;1.27;;
50569;SDS011;36525;49.398;7.614;2023-05-14T15:03:14;3.85;;;1.00;;
50569;SDS011;36525;49.398;7.614;2023-05-14T15:05:43;2.03;;;1.13;;
50569;SDS011;36525;49.398;7.614;2023-05-14T15:08:10;3.38;;;0.70;;
50569;SDS011;36525;49.398;7.614;2023-05-14T15:10:37;1.27;;;0.70;;